createdAt,value
2022-09-07T00:00:26.776Z,5.97
2022-09-07T00:02:53.947Z,7.22
2022-09-07T00:05:21.037Z,6.45
2022-09-07T00:07:48.214Z,9.90
2022-09-07T00:10:15.428Z,3.80
2022-09-07T00:12:42.566Z,4.43
2022-09-07T00:15:11.553Z,4.95
2022-09-07T00:17:38.748Z,9.68
2022-09-07T00:20:07.291Z,7.13
2022-09-07T00:22:34.597Z,5.97
2022-09-07T00:25:02.216Z,5.32
2022-09-07T00:27:29.427Z,4.18
2022-09-07T00:29:56.648Z,9.07
2022-09-07T00:32:23.921Z,4.38
2022-09-07T00:34:51.380Z,6.07
2022-09-07T00:37:18.570Z,7.10
2022-09-07T00:39:45.779Z,6.30
2022-09-07T00:42:12.862Z,5.53
2022-09-07T00:44:43.186Z,6.65
2022-09-07T00:49:38.017Z,4.97
2022-09-07T00:52:05.479Z,7.80
2022-09-07T00:54:41.261Z,7.15
2022-09-07T00:57:08.457Z,6.78
2022-09-07T00:59:39.520Z,4.63
2022-09-07T01:02:06.942Z,6.80
2022-09-07T01:04:34.286Z,8.60
2022-09-07T01:07:02.016Z,5.47
2022-09-07T01:09:29.261Z,4.47
2022-09-07T01:11:58.725Z,9.45
2022-09-07T01:14:29.295Z,7.50
2022-09-07T01:17:15.056Z,5.18
2022-09-07T01:20:06.977Z,6.90
2022-09-07T01:22:58.591Z,5.35
2022-09-07T01:25:34.914Z,4.90
2022-09-07T01:28:17.119Z,6.88
2022-09-07T01:31:08.820Z,8.07
2022-09-07T01:33:42.443Z,8.05
2022-09-07T01:36:15.374Z,7.70
2022-09-07T01:38:46.758Z,5.30
2022-09-07T01:41:39.821Z,8.02
2022-09-07T01:44:37.347Z,4.18
2022-09-07T01:47:20.036Z,4.97
2022-09-07T01:50:24.834Z,5.53
2022-09-07T01:52:58.035Z,6.35
2022-09-07T01:55:28.635Z,8.93
2022-09-07T01:58:18.043Z,7.80
2022-09-07T02:00:48.454Z,8.73
2022-09-07T02:03:20.083Z,7.22
2022-09-07T02:05:52.034Z,7.68
2022-09-07T02:08:27.438Z,7.25
2022-09-07T02:11:07.988Z,6.50
2022-09-07T02:13:39.892Z,5.57
2022-09-07T02:16:13.406Z,5.47
2022-09-07T02:18:44.965Z,5.93
2022-09-07T02:21:13.030Z,6.75
2022-09-07T02:23:52.661Z,13.30
2022-09-07T02:26:23.947Z,5.10
2022-09-07T02:28:51.277Z,5.40
2022-09-07T02:31:18.743Z,5.53
2022-09-07T02:33:45.775Z,7.50
2022-09-07T02:36:12.952Z,7.57
2022-09-07T02:38:40.344Z,8.63
2022-09-07T02:41:36.926Z,7.22
2022-09-07T02:44:07.902Z,6.57
2022-09-07T02:46:46.899Z,7.47
2022-09-07T02:49:32.565Z,6.88
2022-09-07T02:52:41.504Z,6.60
2022-09-07T02:55:28.325Z,5.60
2022-09-07T02:58:10.524Z,5.13
2022-09-07T03:01:32.817Z,7.35
2022-09-07T03:04:06.092Z,4.72
2022-09-07T03:06:46.183Z,7.15
2022-09-07T03:09:16.556Z,8.75
2022-09-07T03:11:43.575Z,6.55
2022-09-07T03:14:14.462Z,7.15
2022-09-07T03:16:41.512Z,5.78
2022-09-07T03:19:08.593Z,6.00
2022-09-07T03:21:36.101Z,7.75
2022-09-07T03:24:03.245Z,5.00
2022-09-07T03:26:30.791Z,7.55
2022-09-07T03:28:58.223Z,7.43
2022-09-07T03:31:25.601Z,7.03
2022-09-07T03:33:52.749Z,11.30
2022-09-07T03:36:19.974Z,7.53
2022-09-07T03:38:46.996Z,7.68
2022-09-07T03:41:14.074Z,8.65
2022-09-07T03:43:41.616Z,9.45
2022-09-07T03:46:10.775Z,7.43
2022-09-07T03:48:39.146Z,14.13
2022-09-07T03:51:10.286Z,6.57
2022-09-07T03:53:38.769Z,7.90
2022-09-07T03:56:11.204Z,7.88
2022-09-07T03:58:38.956Z,10.30
2022-09-07T04:01:27.288Z,10.52
2022-09-07T04:04:01.793Z,6.32
2022-09-07T04:06:29.529Z,6.53
2022-09-07T04:08:56.755Z,8.75
2022-09-07T04:11:24.045Z,6.45
2022-09-07T04:13:51.157Z,9.30
2022-09-07T04:16:22.744Z,7.55
2022-09-07T04:18:50.666Z,11.52
2022-09-07T04:21:18.340Z,10.18
2022-09-07T04:23:45.607Z,6.28
2022-09-07T04:26:20.981Z,8.98
2022-09-07T04:28:48.286Z,6.45
2022-09-07T04:31:16.178Z,7.60
2022-09-07T04:33:44.444Z,10.95
2022-09-07T04:36:12.616Z,7.75
2022-09-07T04:38:42.829Z,10.43
2022-09-07T04:43:38.007Z,5.40
2022-09-07T04:46:06.513Z,6.70
2022-09-07T04:48:33.876Z,10.23
2022-09-07T04:51:07.659Z,8.70
2022-09-07T04:53:35.121Z,6.88
2022-09-07T04:56:02.757Z,6.60
2022-09-07T04:58:30.023Z,7.60
2022-09-07T05:01:04.704Z,7.70
2022-09-07T05:03:32.824Z,7.20
2022-09-07T05:06:06.688Z,9.48
2022-09-07T05:08:43.075Z,9.85
2022-09-07T05:11:11.092Z,8.25
2022-09-07T05:13:38.300Z,11.18
2022-09-07T05:20:46.760Z,7.57
2022-09-07T05:25:11.358Z,6.93
2022-09-07T05:27:38.543Z,13.80
2022-09-07T05:30:06.596Z,10.00
2022-09-07T05:32:34.226Z,11.00
2022-09-07T05:35:01.886Z,7.68
2022-09-07T05:37:29.158Z,7.30
2022-09-07T05:39:57.029Z,9.88
2022-09-07T05:42:24.282Z,6.50
2022-09-07T05:44:51.558Z,9.85
2022-09-07T05:47:18.615Z,14.82
2022-09-07T05:49:45.731Z,12.40
2022-09-07T05:52:13.125Z,11.38
2022-09-07T05:54:40.360Z,7.00
2022-09-07T05:57:07.567Z,7.30
2022-09-07T05:59:35.219Z,8.65
2022-09-07T06:02:02.788Z,11.63
2022-09-07T06:04:29.934Z,8.63
2022-09-07T06:12:32.451Z,11.50
2022-09-07T06:15:01.890Z,14.57
2022-09-07T06:17:29.840Z,10.88
2022-09-07T06:19:57.519Z,10.55
2022-09-07T06:22:27.743Z,11.13
2022-09-07T06:24:57.900Z,8.93
2022-09-07T06:27:25.096Z,10.40
2022-09-07T06:29:52.197Z,12.43
2022-09-07T06:35:14.793Z,13.00
2022-09-07T06:55:42.690Z,12.60
2022-09-07T06:58:19.468Z,15.82
2022-09-07T07:00:47.044Z,9.50
2022-09-07T07:03:14.300Z,9.95
2022-09-07T07:05:41.679Z,13.85
2022-09-07T07:08:09.093Z,13.55
2022-09-07T07:10:39.730Z,8.40
2022-09-07T07:13:07.032Z,11.43
2022-09-07T07:15:34.434Z,11.25
2022-09-07T07:18:19.770Z,11.25
2022-09-07T07:20:48.148Z,10.85
2022-09-07T07:23:15.497Z,13.15
2022-09-07T07:25:42.661Z,13.40
2022-09-07T07:31:09.484Z,11.65
2022-09-07T07:33:41.187Z,12.23
2022-09-07T07:36:22.327Z,10.23
2022-09-07T07:44:18.136Z,8.45
2022-09-07T07:46:48.586Z,14.15
2022-09-07T07:49:16.095Z,10.88
2022-09-07T07:55:00.009Z,11.40
2022-09-07T07:57:27.951Z,11.48
2022-09-07T07:59:55.270Z,17.55
2022-09-07T08:02:22.524Z,12.32
2022-09-07T08:04:50.300Z,15.93
2022-09-07T08:07:17.718Z,14.10
2022-09-07T08:09:45.802Z,12.25
2022-09-07T08:12:17.274Z,10.13
2022-09-07T08:14:54.176Z,12.02
2022-09-07T08:17:21.584Z,10.88
2022-09-07T08:19:49.090Z,9.90
2022-09-07T08:22:19.174Z,11.57
2022-09-07T08:27:13.871Z,13.82
2022-09-07T08:29:40.917Z,9.73
2022-09-07T08:32:08.376Z,20.33
2022-09-07T08:34:36.609Z,8.90
2022-09-07T08:37:04.170Z,10.70
2022-09-07T08:39:36.747Z,14.15
2022-09-07T08:42:04.203Z,8.02
2022-09-07T08:44:36.128Z,10.55
2022-09-07T08:47:08.423Z,12.75
2022-09-07T08:50:02.202Z,11.23
2022-09-07T08:52:54.039Z,11.02
2022-09-07T08:55:33.754Z,11.90
2022-09-07T08:58:49.126Z,10.13
2022-09-07T09:01:41.179Z,12.23
2022-09-07T09:05:21.260Z,12.13
2022-09-07T09:08:36.768Z,12.18
2022-09-07T09:11:38.598Z,8.80
2022-09-07T09:17:11.937Z,8.48
2022-09-07T09:19:51.789Z,7.53
2022-09-07T09:22:23.813Z,12.70
2022-09-07T09:25:20.204Z,11.43
2022-09-07T09:27:56.820Z,11.30
2022-09-07T09:30:28.445Z,11.23
2022-09-07T09:33:22.077Z,12.45
2022-09-07T09:35:56.248Z,9.85
2022-09-07T09:38:29.811Z,8.50
2022-09-07T09:41:18.210Z,13.02
2022-09-07T09:43:55.716Z,10.13
2022-09-07T09:46:39.785Z,10.68
2022-09-07T09:49:34.145Z,8.75
2022-09-07T09:52:33.621Z,9.00
2022-09-07T09:55:33.373Z,13.60
2022-09-07T10:05:18.734Z,10.20
2022-09-07T10:07:51.429Z,12.60
2022-09-07T10:10:18.937Z,10.27
2022-09-07T10:12:46.799Z,8.98
2022-09-07T10:19:28.888Z,9.45
2022-09-07T10:22:05.644Z,8.10
2022-09-07T10:24:37.407Z,6.20
2022-09-07T10:27:19.849Z,11.32
2022-09-07T10:29:47.383Z,9.00
2022-09-07T10:35:14.834Z,11.75
2022-09-07T10:38:02.789Z,9.95
2022-09-07T10:40:36.223Z,11.38
2022-09-07T10:44:28.320Z,12.82
2022-09-07T10:50:34.103Z,10.90
2022-09-07T10:53:39.027Z,10.80
2022-09-07T10:56:18.609Z,9.90
2022-09-07T10:59:09.933Z,9.38
2022-09-07T11:06:08.772Z,10.75
2022-09-07T11:12:05.159Z,7.28
2022-09-07T11:15:03.830Z,11.25
2022-09-07T11:17:53.131Z,9.27
2022-09-07T11:21:07.342Z,11.68
2022-09-07T11:23:47.198Z,8.57
2022-09-07T11:26:54.451Z,9.63
2022-09-07T11:29:33.178Z,7.32
2022-09-07T11:32:13.530Z,9.93
2022-09-07T11:34:45.176Z,8.68
2022-09-07T11:37:39.375Z,9.30
2022-09-07T11:40:14.643Z,10.15
2022-09-07T11:43:03.106Z,12.98
2022-09-07T11:46:03.376Z,7.32
2022-09-07T11:48:42.209Z,8.32
2022-09-07T11:51:14.889Z,9.88
2022-09-07T11:53:47.671Z,8.88
2022-09-07T11:56:25.988Z,8.40
2022-09-07T11:59:27.372Z,10.73
2022-09-07T12:02:15.732Z,9.10
2022-09-07T12:05:20.398Z,9.25
2022-09-07T12:08:12.048Z,9.20
2022-09-07T12:11:23.082Z,9.25
2022-09-07T12:14:15.236Z,9.88
2022-09-07T12:16:54.376Z,11.32
2022-09-07T12:19:25.308Z,9.57
2022-09-07T12:21:52.469Z,11.02
2022-09-07T12:24:39.378Z,9.07
2022-09-07T12:27:21.745Z,7.95
2022-09-07T12:29:58.137Z,8.25
2022-09-07T12:32:55.303Z,12.48
2022-09-07T12:35:42.531Z,6.60
2022-09-07T12:38:18.854Z,8.70
2022-09-07T12:41:00.533Z,9.77
2022-09-07T12:43:35.919Z,10.32
2022-09-07T12:46:03.443Z,10.48
2022-09-07T12:48:49.262Z,10.93
2022-09-07T12:54:38.051Z,8.65
2022-09-07T12:57:43.082Z,9.85
2022-09-07T13:00:40.580Z,9.60
2022-09-07T13:03:51.788Z,8.52
2022-09-07T13:09:33.785Z,6.40
2022-09-07T13:12:57.862Z,7.38
2022-09-07T13:15:44.815Z,8.07
2022-09-07T13:18:29.511Z,6.82
2022-09-07T13:21:09.025Z,10.07
2022-09-07T13:23:43.352Z,7.43
2022-09-07T13:26:34.262Z,8.90
2022-09-07T13:29:05.242Z,10.15
2022-09-07T13:32:10.291Z,7.30
2022-09-07T13:34:44.031Z,9.63
2022-09-07T13:37:32.517Z,10.88
2022-09-07T13:40:00.460Z,11.30
2022-09-07T13:42:34.735Z,8.27
2022-09-07T13:45:07.370Z,8.75
2022-09-07T13:48:22.517Z,9.40
2022-09-07T13:51:23.616Z,9.43
2022-09-07T13:54:27.513Z,8.43
2022-09-07T13:57:06.360Z,8.27
2022-09-07T13:59:36.798Z,7.93
2022-09-07T14:02:14.181Z,6.05
2022-09-07T14:05:13.344Z,7.75
2022-09-07T14:07:45.875Z,7.32
2022-09-07T14:10:12.903Z,9.43
2022-09-07T14:12:44.909Z,6.75
2022-09-07T14:15:29.574Z,9.88
2022-09-07T14:18:13.667Z,8.02
2022-09-07T14:20:45.412Z,7.70
2022-09-07T14:23:28.348Z,9.85
2022-09-07T14:26:18.795Z,8.32
2022-09-07T14:28:47.723Z,6.80
2022-09-07T14:31:20.045Z,13.00
2022-09-07T14:33:51.607Z,9.13
2022-09-07T14:36:41.666Z,8.30
2022-09-07T14:39:07.033Z,11.00
2022-09-07T14:41:34.861Z,9.45
2022-09-07T14:44:02.690Z,5.82
2022-09-07T14:46:36.903Z,8.32
2022-09-07T14:49:19.009Z,9.02
2022-09-07T14:51:48.392Z,7.85
2022-09-07T14:54:27.418Z,9.65
2022-09-07T14:57:30.849Z,9.52
2022-09-07T14:59:59.000Z,7.38
2022-09-07T15:02:36.649Z,7.53
2022-09-07T15:05:23.753Z,7.57
2022-09-07T15:07:55.458Z,9.68
2022-09-07T15:10:23.659Z,6.72
2022-09-07T15:12:55.347Z,9.32
2022-09-07T15:15:27.306Z,8.45
2022-09-07T15:18:04.527Z,6.95
2022-09-07T15:20:43.415Z,8.95
2022-09-07T15:23:17.631Z,8.60
2022-09-07T15:25:50.863Z,7.03
2022-09-07T15:34:13.155Z,9.63
2022-09-07T15:36:43.057Z,7.95
2022-09-07T15:39:30.283Z,7.55
2022-09-07T15:42:00.451Z,7.93
2022-09-07T15:44:45.406Z,11.57
2022-09-07T15:50:00.793Z,8.73
2022-09-07T15:52:31.253Z,7.63
2022-09-07T15:54:59.674Z,9.18
2022-09-07T16:00:15.629Z,9.38
2022-09-07T16:05:39.778Z,9.90
2022-09-07T16:10:55.689Z,10.77
2022-09-07T16:13:24.425Z,8.27
2022-09-07T16:15:51.914Z,7.55
2022-09-07T16:18:19.918Z,8.35
2022-09-07T16:20:52.487Z,6.90
2022-09-07T16:23:20.702Z,7.60
2022-09-07T16:25:58.041Z,8.95
2022-09-07T16:28:25.772Z,7.72
2022-09-07T16:30:53.065Z,7.55
2022-09-07T16:33:36.618Z,7.60
2022-09-07T16:36:07.448Z,7.57
2022-09-07T16:38:50.112Z,12.75
2022-09-07T16:41:29.206Z,7.35
2022-09-07T16:43:56.673Z,8.73
2022-09-07T16:46:25.687Z,10.50
2022-09-07T16:48:53.045Z,8.30
2022-09-07T16:51:21.710Z,5.55
2022-09-07T16:53:50.164Z,8.02
2022-09-07T16:56:18.986Z,6.15
2022-09-07T16:58:48.090Z,8.18
2022-09-07T17:01:16.785Z,5.32
2022-09-07T17:03:44.063Z,11.18
2022-09-07T17:06:12.600Z,9.40
2022-09-07T17:08:39.917Z,10.00
2022-09-07T17:11:42.750Z,7.45
2022-09-07T17:14:13.734Z,8.23
2022-09-07T17:16:41.280Z,8.35
2022-09-07T17:22:01.281Z,7.85
2022-09-07T17:24:28.536Z,7.15
2022-09-07T17:26:55.911Z,11.27
2022-09-07T17:29:23.340Z,8.73
2022-09-07T17:34:38.146Z,8.63
2022-09-07T17:37:05.425Z,8.52
2022-09-07T17:39:32.769Z,8.27
2022-09-07T17:42:01.090Z,6.82
2022-09-07T17:44:31.925Z,6.72
2022-09-07T17:47:00.710Z,9.25
2022-09-07T17:49:29.706Z,6.80
2022-09-07T17:51:58.678Z,7.93
2022-09-07T17:54:26.009Z,13.75
2022-09-07T17:56:53.451Z,7.43
2022-09-07T18:02:09.516Z,7.30
2022-09-07T18:04:36.627Z,9.50
2022-09-07T18:07:03.919Z,6.00
2022-09-07T18:09:34.154Z,7.38
2022-09-07T18:12:04.340Z,7.45
2022-09-07T18:14:34.466Z,7.88
2022-09-07T18:19:29.960Z,9.10
2022-09-07T18:21:57.780Z,10.05
2022-09-07T18:24:25.165Z,7.03
2022-09-07T18:26:52.831Z,7.18
2022-09-07T18:29:32.310Z,6.18
2022-09-07T18:32:03.006Z,11.05
2022-09-07T18:34:32.185Z,8.00
2022-09-07T18:37:00.067Z,8.80
2022-09-07T18:39:28.210Z,8.20
2022-09-07T18:41:55.589Z,11.52
2022-09-07T18:47:23.287Z,8.05
2022-09-07T18:49:51.429Z,9.30
2022-09-07T18:55:10.012Z,7.22
2022-09-07T18:57:37.814Z,9.60
2022-09-07T19:00:06.944Z,9.95
2022-09-07T19:02:34.216Z,8.57
2022-09-07T19:07:52.157Z,10.23
2022-09-07T19:10:19.587Z,8.30
2022-09-07T19:12:46.764Z,11.30
2022-09-07T19:15:14.361Z,11.23
2022-09-07T19:17:41.706Z,10.32
2022-09-07T19:20:09.694Z,13.93
2022-09-07T19:22:36.906Z,10.48
2022-09-07T19:25:05.802Z,10.18
2022-09-07T19:27:33.265Z,11.63
2022-09-07T19:30:02.931Z,11.15
2022-09-07T19:32:30.735Z,8.05
2022-09-07T19:34:57.981Z,10.30
2022-09-07T19:37:25.915Z,9.77
2022-09-07T19:39:56.996Z,9.45
2022-09-07T19:42:24.457Z,9.27
2022-09-07T19:44:52.118Z,13.52
2022-09-07T19:47:19.657Z,13.20
2022-09-07T19:49:46.737Z,9.43
2022-09-07T19:52:13.918Z,5.47
2022-09-07T19:54:41.212Z,10.55
2022-09-07T19:57:08.361Z,7.60
2022-09-07T19:59:35.443Z,15.65
2022-09-07T20:02:09.994Z,10.85
2022-09-07T20:04:37.323Z,6.60
2022-09-07T20:07:04.551Z,7.43
2022-09-07T20:09:41.577Z,8.10
2022-09-07T20:12:08.874Z,8.38
2022-09-07T20:14:36.292Z,10.48
2022-09-07T20:17:04.406Z,9.43
2022-09-07T20:19:34.477Z,10.73
2022-09-07T20:22:04.610Z,8.95
2022-09-07T20:24:36.005Z,8.88
2022-09-07T20:27:15.546Z,11.68
2022-09-07T20:29:48.523Z,14.10
2022-09-07T20:32:17.164Z,11.35
2022-09-07T20:34:49.531Z,13.43
2022-09-07T20:37:17.455Z,7.07
2022-09-07T20:39:51.270Z,9.63
2022-09-07T20:42:19.300Z,10.85
2022-09-07T20:44:46.619Z,7.88
2022-09-07T20:47:16.577Z,5.72
2022-09-07T20:49:43.789Z,6.47
2022-09-07T20:52:11.068Z,11.13
2022-09-07T20:54:38.958Z,3.40
2022-09-07T20:57:06.264Z,6.22
2022-09-07T20:59:33.367Z,2.53
2022-09-07T21:02:02.925Z,4.20
2022-09-07T21:04:30.723Z,3.40
2022-09-07T21:06:57.799Z,4.53
2022-09-07T21:09:29.028Z,2.58
2022-09-07T21:13:33.458Z,2.92
2022-09-07T21:16:41.368Z,1.80
2022-09-07T21:19:16.463Z,3.53
2022-09-07T21:21:53.133Z,1.92
2022-09-07T21:24:26.009Z,1.95
2022-09-07T21:27:03.609Z,2.28
2022-09-07T21:29:35.144Z,3.67
2022-09-07T21:32:05.445Z,3.70
2022-09-07T21:34:45.436Z,4.40
2022-09-07T21:37:13.038Z,5.43
2022-09-07T21:40:12.888Z,3.00
2022-09-07T21:42:41.706Z,1.85
2022-09-07T21:45:10.485Z,2.40
2022-09-07T21:47:38.332Z,1.63
2022-09-07T21:50:05.891Z,3.50
2022-09-07T21:52:33.098Z,3.10
2022-09-07T21:55:07.117Z,2.97
2022-09-07T21:57:34.375Z,3.15
2022-09-07T22:00:08.780Z,2.00
2022-09-07T22:02:35.928Z,2.83
2022-09-07T22:05:06.327Z,2.67
2022-09-07T22:07:36.331Z,2.03
2022-09-07T22:10:03.692Z,1.85
2022-09-07T22:12:31.744Z,7.45
2022-09-07T22:14:59.370Z,3.75
2022-09-07T22:17:26.660Z,2.92
2022-09-07T22:19:53.850Z,2.95
2022-09-07T22:22:21.598Z,2.30
2022-09-07T22:24:49.397Z,4.00
2022-09-07T22:27:16.586Z,1.60
2022-09-07T22:29:43.876Z,1.27
2022-09-07T22:32:11.196Z,2.67
2022-09-07T22:34:38.471Z,2.50
2022-09-07T22:37:05.861Z,3.25
2022-09-07T22:39:35.362Z,3.05
2022-09-07T22:42:02.870Z,2.30
2022-09-07T22:44:33.066Z,1.77
2022-09-07T22:47:02.625Z,3.13
2022-09-07T22:49:29.699Z,1.85
2022-09-07T22:51:57.175Z,4.60
2022-09-07T22:54:24.265Z,2.05
2022-09-07T22:56:51.567Z,3.30
2022-09-07T22:59:18.977Z,2.58
2022-09-07T23:01:46.246Z,2.97
2022-09-07T23:04:13.707Z,4.82
2022-09-07T23:06:42.305Z,1.55
2022-09-07T23:09:11.236Z,3.25
2022-09-07T23:11:38.619Z,2.95
2022-09-07T23:14:08.061Z,3.30
2022-09-07T23:16:35.516Z,2.73
2022-09-07T23:19:03.179Z,5.25
2022-09-07T23:21:33.250Z,2.90
2022-09-07T23:24:02.786Z,3.15
2022-09-07T23:26:31.454Z,3.13
2022-09-07T23:29:00.837Z,3.53
2022-09-07T23:31:30.881Z,1.83
2022-09-07T23:33:58.379Z,1.80
2022-09-07T23:36:26.146Z,3.38
2022-09-07T23:38:56.793Z,2.97
2022-09-07T23:41:25.069Z,3.60
2022-09-07T23:43:52.950Z,3.70
2022-09-07T23:46:20.088Z,3.75
2022-09-07T23:48:47.945Z,1.92
2022-09-07T23:51:18.742Z,2.47
2022-09-07T23:53:49.251Z,3.90
2022-09-07T23:56:16.578Z,4.63
2022-09-07T23:58:43.832Z,3.25
